Time;durP1;ratioP1;P1;durP2;ratioP2;P2;SDS_P1;SDS_P2;PMS_P1;PMS_P2;Temp;Humidity;BMP_temperature;BMP_pressure;BME280_temperature;BME280_humidity;BME280_pressure;Samples;Min_cycle;Max_cycle;Signal;HPM_P1;HPM_P2
2023/04/29 00:02:55;;;;;;;7.78;5.57;;;;;;;;;;6241734;28;20209;-78
2023/04/29 00:05:57;;;;;;;10.40;5.88;;;;;;;;;;6242891;28;20060;-78
2023/04/29 00:16:41;;;;;;;8.68;5.00;;;;;;;;;;6168140;28;20126;-78
2023/04/29 00:20:05;;;;;;;11.57;5.40;;;;;;;;;;6173108;28;20409;-78
2023/04/29 00:26:41;;;;;;;10.20;5.72;;;;;;;;;;6169636;28;20356;-78
2023/04/29 00:29:55;;;;;;;9.07;5.15;;;;;;;;;;6173450;28;20399;-78
2023/04/29 00:32:57;;;;;;;10.20;5.15;;;;;;;;;;6172479;28;20250;-78
2023/04/29 00:36:08;;;;;;;9.15;4.85;;;;;;;;;;6168079;28;20067;-78
2023/04/29 00:39:10;;;;;;;9.63;5.53;;;;;;;;;;6172579;28;20055;-77
2023/04/29 00:42:22;;;;;;;9.55;4.97;;;;;;;;;;6176044;28;20066;-78
2023/04/29 00:45:42;;;;;;;10.43;5.97;;;;;;;;;;6163440;28;20070;-78
2023/04/29 00:48:44;;;;;;;14.45;6.15;;;;;;;;;;6181248;28;20076;-78
2023/04/29 00:51:46;;;;;;;7.53;5.25;;;;;;;;;;6244380;28;20058;-78
2023/04/29 00:54:51;;;;;;;12.55;6.22;;;;;;;;;;6240635;28;20064;-78
2023/04/29 00:57:54;;;;;;;8.43;5.05;;;;;;;;;;6240468;28;20049;-78
2023/04/29 01:00:56;;;;;;;7.03;5.03;;;;;;;;;;6237673;28;20105;-78
2023/04/29 01:04:02;;;;;;;7.63;5.10;;;;;;;;;;6244176;28;20063;-78
2023/04/29 01:10:44;;;;;;;8.02;5.00;;;;;;;;;;6238550;28;20056;-78
2023/04/29 01:14:06;;;;;;;8.40;4.93;;;;;;;;;;6240888;28;20510;-78
2023/04/29 01:20:37;;;;;;;7.30;4.97;;;;;;;;;;6242310;28;20049;-78
2023/04/29 01:23:45;;;;;;;8.23;5.10;;;;;;;;;;6241437;28;20052;-78
2023/04/29 01:26:54;;;;;;;7.35;4.60;;;;;;;;;;6242862;28;20383;-79
2023/04/29 01:30:11;;;;;;;11.45;4.88;;;;;;;;;;6240020;28;20053;-78
2023/04/29 01:33:25;;;;;;;9.82;5.22;;;;;;;;;;6238386;28;20152;-78
2023/04/29 01:36:56;;;;;;;9.13;4.95;;;;;;;;;;6240520;28;20048;-78
2023/04/29 01:40:10;;;;;;;13.77;5.47;;;;;;;;;;6240045;28;20046;-78
2023/04/29 01:43:12;;;;;;;7.45;5.13;;;;;;;;;;6240185;28;20049;-78
2023/04/29 01:46:39;;;;;;;7.10;4.63;;;;;;;;;;6241760;28;20057;-78
2023/04/29 01:53:24;;;;;;;8.55;5.00;;;;;;;;;;6186689;28;20101;-78
2023/04/29 01:56:31;;;;;;;7.78;5.90;;;;;;;;;;6241094;28;20069;-78
2023/04/29 01:59:33;;;;;;;8.30;5.45;;;;;;;;;;6237108;28;20050;-78
2023/04/29 02:02:35;;;;;;;10.00;5.80;;;;;;;;;;6239821;28;20241;-79
2023/04/29 02:05:38;;;;;;;12.07;5.55;;;;;;;;;;6235314;28;20057;-78
2023/04/29 02:08:50;;;;;;;8.77;5.90;;;;;;;;;;6241719;28;20053;-79
2023/04/29 02:11:54;;;;;;;8.48;5.18;;;;;;;;;;6233797;28;20053;-78
2023/04/29 02:14:56;;;;;;;12.93;5.85;;;;;;;;;;6241106;28;20104;-78
2023/04/29 02:17:58;;;;;;;7.72;5.20;;;;;;;;;;6210778;28;20153;-78
2023/04/29 02:21:41;;;;;;;5.75;5.15;;;;;;;;;;6242883;28;20061;-78
2023/04/29 02:24:46;;;;;;;9.80;5.40;;;;;;;;;;6235507;28;20045;-78
2023/04/29 02:27:50;;;;;;;7.22;5.20;;;;;;;;;;6234430;28;20166;-78
2023/04/29 02:30:53;;;;;;;12.00;5.60;;;;;;;;;;6242748;28;20053;-79
2023/04/29 02:33:56;;;;;;;7.07;5.28;;;;;;;;;;6239296;28;20115;-78
2023/04/29 02:36:57;;;;;;;9.60;5.95;;;;;;;;;;6237573;28;20143;-78
2023/04/29 02:39:59;;;;;;;7.47;5.18;;;;;;;;;;6239577;28;20057;-78
2023/04/29 02:43:03;;;;;;;6.60;4.80;;;;;;;;;;6237831;28;20065;-78
2023/04/29 02:46:05;;;;;;;7.30;4.95;;;;;;;;;;6240571;28;20442;-78
2023/04/29 02:49:07;;;;;;;9.90;5.72;;;;;;;;;;6242255;28;20053;-78
2023/04/29 02:52:11;;;;;;;9.75;5.43;;;;;;;;;;6229212;28;20050;-78
2023/04/29 02:55:13;;;;;;;9.35;5.75;;;;;;;;;;6240566;28;20045;-78
2023/04/29 02:58:17;;;;;;;7.38;5.35;;;;;;;;;;6244887;28;20060;-78
2023/04/29 03:01:19;;;;;;;7.05;5.32;;;;;;;;;;6239971;28;20064;-78
2023/04/29 03:04:21;;;;;;;9.70;5.45;;;;;;;;;;6241841;28;20193;-78
2023/04/29 03:07:23;;;;;;;8.77;5.85;;;;;;;;;;6238567;28;20277;-78
2023/04/29 03:10:25;;;;;;;8.20;4.82;;;;;;;;;;6239378;28;20434;-78
2023/04/29 03:13:34;;;;;;;9.55;5.55;;;;;;;;;;6237555;28;20424;-78
2023/04/29 03:16:36;;;;;;;10.55;5.60;;;;;;;;;;6227341;28;20057;-78
2023/04/29 03:19:38;;;;;;;9.82;5.93;;;;;;;;;;6232871;28;20152;-78
2023/04/29 03:22:40;;;;;;;9.55;6.00;;;;;;;;;;6240405;28;20109;-78
2023/04/29 03:25:41;;;;;;;8.40;6.18;;;;;;;;;;6239339;28;20063;-78
2023/04/29 03:28:45;;;;;;;11.20;6.63;;;;;;;;;;6238970;28;20083;-78
2023/04/29 03:31:47;;;;;;;11.85;6.97;;;;;;;;;;6237270;28;20096;-78
2023/04/29 03:34:49;;;;;;;11.60;6.32;;;;;;;;;;6237896;28;20050;-78
2023/04/29 03:37:51;;;;;;;7.55;6.05;;;;;;;;;;6238850;28;20078;-78
2023/04/29 03:40:53;;;;;;;10.23;6.65;;;;;;;;;;6241354;28;20057;-78
2023/04/29 03:43:59;;;;;;;10.73;6.88;;;;;;;;;;6240662;28;20061;-78
2023/04/29 03:47:01;;;;;;;7.07;5.93;;;;;;;;;;6239996;28;20195;-78
2023/04/29 03:50:03;;;;;;;13.18;7.60;;;;;;;;;;6239384;28;20147;-78
2023/04/29 03:53:17;;;;;;;9.20;6.93;;;;;;;;;;6222657;28;20081;-78
2023/04/29 03:56:19;;;;;;;12.23;7.10;;;;;;;;;;6236141;28;20380;-78
2023/04/29 03:59:23;;;;;;;8.73;6.50;;;;;;;;;;6239227;28;20112;-78
2023/04/29 04:02:24;;;;;;;14.05;6.80;;;;;;;;;;6239624;28;20053;-78
2023/04/29 04:08:51;;;;;;;11.30;7.00;;;;;;;;;;6142932;28;20059;-78
2023/04/29 04:11:59;;;;;;;9.23;6.65;;;;;;;;;;6146141;28;20082;-78
2023/04/29 04:15:03;;;;;;;9.50;6.88;;;;;;;;;;6143539;28;20415;-78
2023/04/29 04:18:12;;;;;;;11.25;6.65;;;;;;;;;;6141551;28;22009;-78
2023/04/29 04:21:42;;;;;;;9.52;6.13;;;;;;;;;;6136889;28;20062;-78
2023/04/29 04:25:21;;;;;;;;;;;;;;;;;;;;;
2023/04/29 04:28:37;;;;;;;9.93;6.20;;;;;;;;;;6238318;28;20717;-78
2023/04/29 04:31:40;;;;;;;11.63;6.88;;;;;;;;;;6222708;28;20266;-78
2023/04/29 04:34:43;;;;;;;9.25;6.18;;;;;;;;;;6236737;28;20050;-78
2023/04/29 04:37:45;;;;;;;13.40;5.88;;;;;;;;;;6241323;28;20124;-79
2023/04/29 04:40:47;;;;;;;8.50;5.38;;;;;;;;;;6244854;28;20122;-78
2023/04/29 04:43:49;;;;;;;12.55;6.03;;;;;;;;;;6240603;28;20049;-78
2023/04/29 04:46:52;;;;;;;9.77;5.43;;;;;;;;;;6242221;28;20053;-78
2023/04/29 04:50:03;;;;;;;8.52;4.63;;;;;;;;;;6242130;28;20273;-78
2023/04/29 04:53:27;;;;;;;8.98;4.90;;;;;;;;;;6241059;28;20084;-78
2023/04/29 04:56:36;;;;;;;7.43;5.13;;;;;;;;;;6238408;28;20041;-78
2023/04/29 04:59:45;;;;;;;6.97;5.13;;;;;;;;;;6238583;28;20053;-78
2023/04/29 05:03:06;;;;;;;;;;;;;;;;;;;;;
2023/04/29 05:06:14;;;;;;;7.85;5.15;;;;;;;;;;6212854;28;20353;-78
2023/04/29 05:09:16;;;;;;;8.38;4.90;;;;;;;;;;6241630;28;20125;-78
2023/04/29 05:16:13;;;;;;;8.68;4.55;;;;;;;;;;6093927;29;20079;-78
2023/04/29 05:19:16;;;;;;;7.35;4.85;;;;;;;;;;6111251;29;20055;-78
2023/04/29 05:22:20;;;;;;;9.43;4.93;;;;;;;;;;6142859;28;20119;-78
2023/04/29 05:25:22;;;;;;;;;;;;;;;;;;6142058;28;20059;-78
2023/04/29 05:28:24;;;;;;;7.38;5.05;;;;;;;;;;6145814;28;19981;-78
2023/04/29 05:31:27;;;;;;;9.23;5.78;;;;;;;;;;6143779;28;20067;-78
2023/04/29 05:34:30;;;;;;;12.48;5.82;;;;;;;;;;6142022;28;20118;-78
2023/04/29 05:37:32;;;;;;;7.32;5.72;;;;;;;;;;6142915;28;20055;-78
2023/04/29 05:40:34;;;;;;;10.35;5.78;;;;;;;;;;6138543;28;20079;-78
2023/04/29 05:43:36;;;;;;;15.20;7.15;;;;;;;;;;6140178;28;20110;-79
2023/04/29 05:46:38;;;;;;;10.00;6.32;;;;;;;;;;6205991;28;20057;-78
2023/04/29 05:49:44;;;;;;;12.65;6.80;;;;;;;;;;6243056;28;20072;-78
2023/04/29 05:52:46;;;;;;;13.77;6.15;;;;;;;;;;6239116;28;20054;-75
2023/04/29 05:55:49;;;;;;;9.90;6.70;;;;;;;;;;6240985;28;20064;-76
2023/04/29 05:58:51;;;;;;;10.88;6.88;;;;;;;;;;6242707;28;20164;-76
2023/04/29 06:01:53;;;;;;;13.25;6.40;;;;;;;;;;6240036;28;20329;-76
2023/04/29 06:04:56;;;;;;;9.77;6.38;;;;;;;;;;6239376;28;20348;-76
2023/04/29 06:07:58;;;;;;;10.95;6.68;;;;;;;;;;6238530;28;20241;-76
2023/04/29 06:11:02;;;;;;;8.82;6.53;;;;;;;;;;6243693;28;20068;-77
2023/04/29 06:14:09;;;;;;;10.50;6.55;;;;;;;;;;6238894;28;20045;-78
2023/04/29 06:17:11;;;;;;;9.43;6.47;;;;;;;;;;6230345;28;20335;-75
2023/04/29 06:20:15;;;;;;;10.18;6.18;;;;;;;;;;6238678;28;20124;-76
2023/04/29 06:23:23;;;;;;;13.27;6.68;;;;;;;;;;6240778;28;20061;-76
2023/04/29 06:26:25;;;;;;;9.50;6.25;;;;;;;;;;6243923;28;20056;-77
2023/04/29 06:29:27;;;;;;;10.65;6.80;;;;;;;;;;6239249;28;20057;-76
2023/04/29 06:32:28;;;;;;;15.77;7.22;;;;;;;;;;6241294;28;20069;-76
2023/04/29 06:35:32;;;;;;;10.90;7.30;;;;;;;;;;6240224;28;20232;-75
2023/04/29 06:38:34;;;;;;;15.40;7.50;;;;;;;;;;6238296;28;20053;-75
2023/04/29 06:41:36;;;;;;;11.07;7.65;;;;;;;;;;6227700;28;20065;-75
2023/04/29 06:44:38;;;;;;;17.48;8.45;;;;;;;;;;6239990;28;20276;-75
2023/04/29 06:47:40;;;;;;;11.75;7.43;;;;;;;;;;6239841;28;20045;-76
2023/04/29 06:50:51;;;;;;;12.52;8.00;;;;;;;;;;6241799;28;20054;-77
2023/04/29 06:53:52;;;;;;;12.10;8.05;;;;;;;;;;6240619;28;20061;-77
2023/04/29 06:56:58;;;;;;;14.90;8.48;;;;;;;;;;6241785;28;20096;-78
2023/04/29 07:00:00;;;;;;;13.30;8.57;;;;;;;;;;6239501;28;20037;-77
2023/04/29 07:03:02;;;;;;;12.98;8.88;;;;;;;;;;6240520;28;20088;-78
2023/04/29 07:06:05;;;;;;;14.27;9.15;;;;;;;;;;6239911;28;20057;-78
2023/04/29 07:09:07;;;;;;;14.07;9.20;;;;;;;;;;6240466;28;20064;-78
2023/04/29 07:12:08;;;;;;;13.65;8.73;;;;;;;;;;6239161;28;20045;-77
2023/04/29 07:15:10;;;;;;;19.67;10.52;;;;;;;;;;6238349;28;20064;-77
2023/04/29 07:18:12;;;;;;;14.60;9.10;;;;;;;;;;6238866;28;20059;-77
2023/04/29 07:21:15;;;;;;;16.85;9.35;;;;;;;;;;6240526;28;20046;-77
2023/04/29 07:24:17;;;;;;;16.38;10.30;;;;;;;;;;6237304;28;20053;-78
2023/04/29 07:27:18;;;;;;;12.85;9.52;;;;;;;;;;6236368;28;20057;-77
2023/04/29 07:30:20;;;;;;;13.90;9.80;;;;;;;;;;6239297;28;20057;-77
2023/04/29 07:33:22;;;;;;;19.95;11.27;;;;;;;;;;6238825;28;20057;-78
2023/04/29 07:36:27;;;;;;;17.25;10.27;;;;;;;;;;6241335;28;20558;-77
2023/04/29 07:39:29;;;;;;;16.50;10.00;;;;;;;;;;6237201;28;20069;-77
2023/04/29 07:42:31;;;;;;;15.40;10.45;;;;;;;;;;6240960;28;20305;-77
2023/04/29 07:45:32;;;;;;;14.55;10.13;;;;;;;;;;6239342;28;20046;-78
2023/04/29 07:48:57;;;;;;;13.57;10.90;;;;;;;;;;6237794;28;20215;-74
2023/04/29 07:52:01;;;;;;;13.57;10.02;;;;;;;;;;6237578;28;20054;-75
2023/04/29 07:55:02;;;;;;;;;;;;;;;;;;6240993;28;20059;-75
2023/04/29 07:58:04;;;;;;;15.05;9.63;;;;;;;;;;6237785;28;20205;-75
2023/04/29 08:01:07;;;;;;;15.95;10.40;;;;;;;;;;6239994;28;20053;-75
2023/04/29 08:04:12;;;;;;;11.93;9.15;;;;;;;;;;6237540;28;20294;-76
2023/04/29 08:07:15;;;;;;;14.00;8.38;;;;;;;;;;6237887;28;20060;-76
2023/04/29 08:10:18;;;;;;;9.40;8.20;;;;;;;;;;6243409;28;20100;-75
2023/04/29 08:13:19;;;;;;;12.15;8.75;;;;;;;;;;6244168;28;20340;-75
2023/04/29 08:16:23;;;;;;;12.68;7.47;;;;;;;;;;6247129;28;20245;-76
2023/04/29 08:19:24;;;;;;;14.32;8.85;;;;;;;;;;6246623;28;20050;-76
2023/04/29 08:22:28;;;;;;;11.27;8.40;;;;;;;;;;6245464;28;20053;-76
2023/04/29 08:25:30;;;;;;;12.63;8.70;;;;;;;;;;6246687;28;21253;-76
2023/04/29 08:28:34;;;;;;;12.48;7.60;;;;;;;;;;6246862;28;20045;-76
2023/04/29 08:31:36;;;;;;;11.95;7.15;;;;;;;;;;6244424;28;20281;-75
2023/04/29 08:34:40;;;;;;;10.93;7.88;;;;;;;;;;6234481;28;20065;-76
2023/04/29 08:37:46;;;;;;;13.95;8.43;;;;;;;;;;6246308;28;20050;-75
2023/04/29 08:40:48;;;;;;;13.50;8.50;;;;;;;;;;6247234;28;20262;-76
2023/04/29 08:43:51;;;;;;;11.35;8.10;;;;;;;;;;6243508;28;20057;-78
2023/04/29 08:47:05;;;;;;;14.35;8.90;;;;;;;;;;6245267;28;20053;-78
2023/04/29 08:50:08;;;;;;;11.23;8.30;;;;;;;;;;6245049;28;20237;-77
2023/04/29 08:53:13;;;;;;;11.20;8.70;;;;;;;;;;6241487;28;20245;-77
2023/04/29 08:56:19;;;;;;;15.00;9.50;;;;;;;;;;6244206;28;20352;-75
2023/04/29 08:59:21;;;;;;;17.52;8.98;;;;;;;;;;6245560;28;20077;-76
2023/04/29 09:02:23;;;;;;;13.65;8.48;;;;;;;;;;6246509;28;20053;-76
2023/04/29 09:05:25;;;;;;;14.38;8.95;;;;;;;;;;6245145;28;20411;-74
2023/04/29 09:08:29;;;;;;;12.13;8.90;;;;;;;;;;6241884;28;20054;-75
2023/04/29 09:11:31;;;;;;;13.88;8.73;;;;;;;;;;6238669;28;20067;-75
2023/04/29 09:14:33;;;;;;;11.88;9.10;;;;;;;;;;6242878;28;20065;-77
2023/04/29 09:17:42;;;;;;;11.85;8.70;;;;;;;;;;6240863;28;20063;-77
2023/04/29 09:20:44;;;;;;;13.25;8.70;;;;;;;;;;6241344;28;20326;-77
2023/04/29 09:23:49;;;;;;;11.95;8.23;;;;;;;;;;6241404;28;20341;-77
2023/04/29 09:26:50;;;;;;;12.30;9.13;;;;;;;;;;6241632;28;20092;-77
2023/04/29 09:30:00;;;;;;;12.18;7.93;;;;;;;;;;6242107;28;20053;-77
2023/04/29 09:33:06;;;;;;;9.35;8.32;;;;;;;;;;6239615;28;20046;-78
2023/04/29 09:36:08;;;;;;;11.68;9.05;;;;;;;;;;6241634;28;20341;-78
2023/04/29 09:39:13;;;;;;;14.52;8.52;;;;;;;;;;6240048;28;20344;-77
2023/04/29 09:42:14;;;;;;;15.07;9.57;;;;;;;;;;6243211;28;20046;-77
2023/04/29 09:45:35;;;;;;;13.77;9.63;;;;;;;;;;6242440;28;20096;-77
2023/04/29 09:48:40;;;;;;;12.80;8.65;;;;;;;;;;6242810;28;20049;-77
2023/04/29 09:51:52;;;;;;;11.10;8.63;;;;;;;;;;6246779;28;20053;-77
2023/04/29 09:55:16;;;;;;;11.45;9.15;;;;;;;;;;6246838;28;20095;-77
2023/04/29 09:58:27;;;;;;;12.20;9.48;;;;;;;;;;6245437;28;20069;-76
2023/04/29 10:01:34;;;;;;;12.13;8.68;;;;;;;;;;6232696;28;20050;-77
2023/04/29 10:04:40;;;;;;;12.75;9.35;;;;;;;;;;6245147;28;20041;-77
2023/04/29 10:07:43;;;;;;;13.57;9.55;;;;;;;;;;6245464;28;20060;-77
2023/04/29 10:10:56;;;;;;;14.32;9.23;;;;;;;;;;6241378;28;20065;-77
2023/04/29 10:14:48;;;;;;;11.95;8.73;;;;;;;;;;6217247;28;20334;-78
2023/04/29 10:17:54;;;;;;;10.30;7.90;;;;;;;;;;6240570;28;20094;-78
2023/04/29 10:21:09;;;;;;;9.85;7.68;;;;;;;;;;6241133;28;20045;-77
2023/04/29 10:24:13;;;;;;;10.02;7.72;;;;;;;;;;6199973;28;20049;-78
2023/04/29 10:27:23;;;;;;;;;;;;;;;;;;6236869;28;20057;-77
2023/04/29 10:30:25;;;;;;;9.45;6.82;;;;;;;;;;6242883;28;19925;-78
2023/04/29 10:33:27;;;;;;;10.93;6.22;;;;;;;;;;6240175;28;20091;-77
2023/04/29 10:36:30;;;;;;;11.60;8.13;;;;;;;;;;6239360;28;20627;-78
2023/04/29 10:39:37;;;;;;;9.65;7.32;;;;;;;;;;6239800;28;20069;-78
2023/04/29 10:42:46;;;;;;;9.82;8.10;;;;;;;;;;6239736;28;21981;-78
2023/04/29 10:45:48;;;;;;;11.32;8.20;;;;;;;;;;6239006;28;20050;-78
2023/04/29 10:48:51;;;;;;;10.00;7.80;;;;;;;;;;6242621;28;20054;-78
2023/04/29 10:52:04;;;;;;;11.57;7.65;;;;;;;;;;6237587;28;20053;-78
2023/04/29 10:55:07;;;;;;;9.32;7.15;;;;;;;;;;6228182;28;20107;-77
2023/04/29 10:58:42;;;;;;;9.32;7.63;;;;;;;;;;6243177;28;20464;-77
2023/04/29 11:01:46;;;;;;;11.38;7.13;;;;;;;;;;6238327;28;20041;-77
2023/04/29 11:05:09;;;;;;;10.35;7.72;;;;;;;;;;6240923;28;20053;-78
2023/04/29 11:08:21;;;;;;;12.45;7.82;;;;;;;;;;6240437;28;20058;-78
2023/04/29 11:11:27;;;;;;;10.70;8.38;;;;;;;;;;6240304;28;20049;-77
2023/04/29 11:14:37;;;;;;;12.20;8.35;;;;;;;;;;6241549;28;20398;-77
2023/04/29 11:21:13;;;;;;;9.95;8.30;;;;;;;;;;6234772;28;20096;-78
2023/04/29 11:24:16;;;;;;;10.07;8.00;;;;;;;;;;6239424;28;20268;-77
2023/04/29 11:27:18;;;;;;;12.00;8.40;;;;;;;;;;6239328;28;20058;-77
2023/04/29 11:30:22;;;;;;;10.23;7.72;;;;;;;;;;6239712;28;20073;-78
2023/04/29 11:33:24;;;;;;;12.10;8.93;;;;;;;;;;6239290;28;20057;-77
2023/04/29 11:39:41;;;;;;;9.15;8.10;;;;;;;;;;6237565;28;20384;-77
2023/04/29 11:42:44;;;;;;;13.73;8.70;;;;;;;;;;6238260;28;20060;-78
2023/04/29 11:45:48;;;;;;;10.93;7.95;;;;;;;;;;6242628;28;20048;-77
2023/04/29 11:48:50;;;;;;;12.13;7.70;;;;;;;;;;6245247;28;20058;-77
2023/04/29 11:51:52;;;;;;;8.48;7.60;;;;;;;;;;6244900;28;20061;-77
2023/04/29 11:54:53;;;;;;;10.73;8.48;;;;;;;;;;6244553;28;20129;-77
2023/04/29 11:57:55;;;;;;;13.13;8.82;;;;;;;;;;6243583;28;20257;-78
2023/04/29 12:01:03;;;;;;;11.55;8.00;;;;;;;;;;6243878;28;20061;-77
2023/04/29 12:04:05;;;;;;;11.40;8.95;;;;;;;;;;6244987;28;20057;-78
2023/04/29 12:07:10;;;;;;;10.02;7.43;;;;;;;;;;6242150;28;20050;-77
2023/04/29 12:10:12;;;;;;;9.32;6.97;;;;;;;;;;6244456;28;20371;-78
2023/04/29 12:13:17;;;;;;;11.50;6.95;;;;;;;;;;6244884;28;21809;-77
2023/04/29 12:16:22;;;;;;;10.88;6.97;;;;;;;;;;6242209;28;20053;-78
2023/04/29 12:19:24;;;;;;;10.43;6.85;;;;;;;;;;6242026;28;20133;-77
2023/04/29 12:22:31;;;;;;;9.27;6.03;;;;;;;;;;6241409;28;20061;-78
2023/04/29 12:25:33;;;;;;;9.13;6.18;;;;;;;;;;6244420;28;20064;-77
2023/04/29 12:28:35;;;;;;;7.07;6.03;;;;;;;;;;6243331;28;20118;-78
2023/04/29 12:31:38;;;;;;;9.88;5.68;;;;;;;;;;6241804;28;21864;-78
2023/04/29 12:34:40;;;;;;;10.32;6.05;;;;;;;;;;6244278;28;20069;-78
2023/04/29 12:37:41;;;;;;;8.75;6.13;;;;;;;;;;6245684;28;20049;-78
2023/04/29 12:40:44;;;;;;;9.30;6.28;;;;;;;;;;6243817;28;20108;-78
2023/04/29 12:43:46;;;;;;;13.82;6.07;;;;;;;;;;6243230;28;20057;-77
2023/04/29 12:46:51;;;;;;;7.50;5.05;;;;;;;;;;6242484;28;20058;-78
2023/04/29 12:49:53;;;;;;;8.00;5.90;;;;;;;;;;6239369;28;20049;-78
2023/04/29 12:52:55;;;;;;;7.80;5.50;;;;;;;;;;6242276;28;20112;-77
2023/04/29 12:55:57;;;;;;;9.40;6.18;;;;;;;;;;6244501;28;20112;-78
2023/04/29 12:59:05;;;;;;;9.55;5.28;;;;;;;;;;6242279;28;20045;-77
2023/04/29 13:02:09;;;;;;;7.63;5.40;;;;;;;;;;6242850;28;20081;-77
2023/04/29 13:05:11;;;;;;;9.23;5.53;;;;;;;;;;6242713;28;20060;-77
2023/04/29 13:08:13;;;;;;;8.00;4.57;;;;;;;;;;6243518;28;20057;-77
2023/04/29 13:11:15;;;;;;;7.40;5.30;;;;;;;;;;6243330;28;20375;-78
2023/04/29 13:14:17;;;;;;;10.82;5.13;;;;;;;;;;6242859;28;20057;-78
2023/04/29 13:17:20;;;;;;;7.97;5.00;;;;;;;;;;6239739;28;20053;-77
2023/04/29 13:20:22;;;;;;;6.57;4.32;;;;;;;;;;6242920;28;20474;-78
2023/04/29 13:23:24;;;;;;;9.45;5.55;;;;;;;;;;6242193;28;20081;-77
2023/04/29 13:26:26;;;;;;;7.38;4.25;;;;;;;;;;6239208;28;20108;-77
2023/04/29 13:29:28;;;;;;;9.57;3.95;;;;;;;;;;6240270;28;20058;-78
2023/04/29 13:32:32;;;;;;;5.70;4.13;;;;;;;;;;6239154;28;20246;-78
2023/04/29 13:35:34;;;;;;;7.68;4.63;;;;;;;;;;6239993;28;20060;-77
2023/04/29 13:38:36;;;;;;;5.55;3.97;;;;;;;;;;6244070;28;20049;-78
2023/04/29 13:41:38;;;;;;;5.90;4.20;;;;;;;;;;6239630;28;20112;-78
2023/04/29 13:44:43;;;;;;;9.73;5.97;;;;;;;;;;6239949;28;20280;-78
2023/04/29 13:47:46;;;;;;;10.02;5.43;;;;;;;;;;6241826;28;20061;-78
2023/04/29 13:50:47;;;;;;;9.23;5.03;;;;;;;;;;6239105;28;20050;-78
2023/04/29 13:53:52;;;;;;;6.82;5.13;;;;;;;;;;6242034;28;20046;-78
2023/04/29 13:56:54;;;;;;;8.40;5.55;;;;;;;;;;6241828;28;20050;-78
2023/04/29 13:59:57;;;;;;;9.18;6.10;;;;;;;;;;6240614;28;20234;-78
2023/04/29 14:03:00;;;;;;;7.83;5.13;;;;;;;;;;6241071;28;20049;-78
2023/04/29 14:06:01;;;;;;;8.43;4.88;;;;;;;;;;6242779;28;20471;-77
2023/04/29 14:09:03;;;;;;;7.20;5.28;;;;;;;;;;6239840;28;20154;-77
2023/04/29 14:12:05;;;;;;;8.48;5.78;;;;;;;;;;6241862;28;20057;-77
2023/04/29 14:15:08;;;;;;;5.95;5.20;;;;;;;;;;6241214;28;20050;-77
2023/04/29 14:18:11;;;;;;;8.23;5.40;;;;;;;;;;6239579;28;21391;-78
2023/04/29 14:21:13;;;;;;;10.25;5.28;;;;;;;;;;6240315;28;20053;-78
2023/04/29 14:24:15;;;;;;;8.20;5.05;;;;;;;;;;6238035;28;20086;-77
2023/04/29 14:27:16;;;;;;;9.88;5.57;;;;;;;;;;6237101;28;21043;-78
2023/04/29 14:30:18;;;;;;;9.70;7.00;;;;;;;;;;6239692;28;20064;-77
2023/04/29 14:33:21;;;;;;;8.77;7.28;;;;;;;;;;6240587;28;20053;-77
2023/04/29 14:36:23;;;;;;;9.57;6.82;;;;;;;;;;6239647;28;20266;-77
2023/04/29 14:39:25;;;;;;;9.10;6.45;;;;;;;;;;6239488;28;20342;-77
2023/04/29 14:42:28;;;;;;;9.50;7.18;;;;;;;;;;6238283;28;20225;-77
2023/04/29 14:45:30;;;;;;;12.90;7.70;;;;;;;;;;6237000;28;20061;-77
2023/04/29 14:48:34;;;;;;;10.45;7.70;;;;;;;;;;6237855;28;20053;-77
2023/04/29 14:51:36;;;;;;;11.50;6.78;;;;;;;;;;6238895;28;20084;-77
2023/04/29 14:54:38;;;;;;;10.18;6.43;;;;;;;;;;6240189;28;20065;-78
2023/04/29 14:57:39;;;;;;;12.90;6.80;;;;;;;;;;6239492;28;20361;-77
2023/04/29 15:00:41;;;;;;;8.65;6.85;;;;;;;;;;6239480;28;20275;-77
2023/04/29 15:03:44;;;;;;;10.82;6.65;;;;;;;;;;6238215;28;20068;-77
2023/04/29 15:06:48;;;;;;;10.20;6.97;;;;;;;;;;6237504;28;20045;-77
2023/04/29 15:09:50;;;;;;;9.85;6.70;;;;;;;;;;6237628;28;20121;-78
2023/04/29 15:12:52;;;;;;;8.75;6.68;;;;;;;;;;6241467;28;20068;-77
2023/04/29 15:15:54;;;;;;;10.23;6.47;;;;;;;;;;6238054;28;20041;-77
2023/04/29 15:18:58;;;;;;;14.02;6.40;;;;;;;;;;6236548;28;20292;-77
2023/04/29 15:22:00;;;;;;;10.48;6.57;;;;;;;;;;6238364;28;20156;-78
2023/04/29 15:25:01;;;;;;;9.25;6.25;;;;;;;;;;6240815;28;20072;-77
2023/04/29 15:28:04;;;;;;;8.20;6.70;;;;;;;;;;6239460;28;20045;-78
2023/04/29 15:31:06;;;;;;;14.25;6.32;;;;;;;;;;6237762;28;20077;-77
2023/04/29 15:34:09;;;;;;;7.93;6.15;;;;;;;;;;6237342;28;20061;-77
2023/04/29 15:37:11;;;;;;;;;;;;;;;;;;6240933;28;20129;-77
2023/04/29 15:40:13;;;;;;;11.30;7.10;;;;;;;;;;6238043;28;19925;-77
2023/04/29 15:43:15;;;;;;;10.50;6.80;;;;;;;;;;6239720;28;20061;-77
2023/04/29 15:46:16;;;;;;;8.68;7.20;;;;;;;;;;6240291;28;20215;-77
2023/04/29 15:49:20;;;;;;;8.35;6.97;;;;;;;;;;6239343;28;20061;-77
2023/04/29 15:52:22;;;;;;;9.40;7.10;;;;;;;;;;6237638;28;21597;-77
2023/04/29 15:55:23;;;;;;;10.95;7.22;;;;;;;;;;6239358;28;20068;-78
2023/04/29 15:58:25;;;;;;;13.05;7.72;;;;;;;;;;6239941;28;20057;-77
2023/04/29 16:01:27;;;;;;;13.90;8.48;;;;;;;;;;6237693;28;20060;-77
2023/04/29 16:04:31;;;;;;;10.52;6.60;;;;;;;;;;6239373;28;20057;-77
2023/04/29 16:07:34;;;;;;;9.95;7.72;;;;;;;;;;6239295;28;20120;-77
2023/04/29 16:10:36;;;;;;;13.23;8.95;;;;;;;;;;6239230;28;20046;-77
2023/04/29 16:13:38;;;;;;;12.95;9.93;;;;;;;;;;6237663;28;20057;-78
2023/04/29 16:16:40;;;;;;;11.97;9.27;;;;;;;;;;6237551;28;20112;-77
2023/04/29 16:19:44;;;;;;;12.52;9.23;;;;;;;;;;6238041;28;20085;-77
2023/04/29 16:22:46;;;;;;;11.93;9.35;;;;;;;;;;6236923;28;20081;-77
2023/04/29 16:25:48;;;;;;;14.45;10.00;;;;;;;;;;6239250;28;20058;-78
2023/04/29 16:28:50;;;;;;;10.68;9.27;;;;;;;;;;6241719;28;20064;-77
2023/04/29 16:31:52;;;;;;;11.70;9.77;;;;;;;;;;6242613;28;20135;-77
2023/04/29 16:34:55;;;;;;;12.73;9.60;;;;;;;;;;6240570;28;20046;-77
2023/04/29 16:37:57;;;;;;;17.05;10.35;;;;;;;;;;6245022;28;20045;-77
2023/04/29 16:40:59;;;;;;;12.02;9.82;;;;;;;;;;6241402;28;20117;-77
2023/04/29 16:44:08;;;;;;;12.32;9.75;;;;;;;;;;6239867;28;20246;-77
2023/04/29 16:47:10;;;;;;;11.13;9.43;;;;;;;;;;6244702;28;20049;-77
2023/04/29 16:50:16;;;;;;;14.63;10.13;;;;;;;;;;6242854;28;20069;-77
2023/04/29 16:53:18;;;;;;;15.32;10.20;;;;;;;;;;6242424;28;20084;-77
2023/04/29 16:56:21;;;;;;;15.23;10.15;;;;;;;;;;6244342;28;20045;-77
2023/04/29 16:59:23;;;;;;;14.40;10.73;;;;;;;;;;6242009;28;20490;-77
2023/04/29 17:02:28;;;;;;;13.70;10.40;;;;;;;;;;6242087;28;20572;-77
2023/04/29 17:05:32;;;;;;;13.70;10.25;;;;;;;;;;6246674;28;20054;-77
2023/04/29 17:08:34;;;;;;;15.20;10.70;;;;;;;;;;6240679;28;20048;-77
2023/04/29 17:11:36;;;;;;;15.63;11.85;;;;;;;;;;6240517;28;20048;-77
2023/04/29 17:14:38;;;;;;;15.07;11.02;;;;;;;;;;6241656;28;20096;-77
2023/04/29 17:17:45;;;;;;;13.93;10.90;;;;;;;;;;6240272;28;20067;-77
2023/04/29 17:21:02;;;;;;;20.23;12.27;;;;;;;;;;6241040;28;20088;-77
2023/04/29 17:24:04;;;;;;;15.23;10.93;;;;;;;;;;6241012;28;20091;-77
2023/04/29 17:27:06;;;;;;;15.25;11.73;;;;;;;;;;6232699;28;20058;-78
2023/04/29 17:30:16;;;;;;;14.23;11.30;;;;;;;;;;6238150;28;20280;-77
2023/04/29 17:33:18;;;;;;;14.02;11.20;;;;;;;;;;6240022;28;20572;-77
2023/04/29 17:36:53;;;;;;;15.55;11.75;;;;;;;;;;6242375;28;20049;-77
2023/04/29 17:39:56;;;;;;;18.63;11.10;;;;;;;;;;6240339;28;20328;-77
2023/04/29 17:42:58;;;;;;;16.05;12.32;;;;;;;;;;6231558;28;20046;-77
2023/04/29 17:46:00;;;;;;;15.93;12.63;;;;;;;;;;6241322;28;20091;-77
2023/04/29 17:49:10;;;;;;;15.02;12.13;;;;;;;;;;6239260;28;20057;-77
2023/04/29 17:52:24;;;;;;;16.70;12.50;;;;;;;;;;6238584;28;20049;-77
2023/04/29 17:55:58;;;;;;;17.08;13.00;;;;;;;;;;6243150;28;20344;-78
2023/04/29 17:59:07;;;;;;;16.77;12.80;;;;;;;;;;6239884;28;20049;-77
2023/04/29 18:05:28;;;;;;;21.77;12.52;;;;;;;;;;6235038;28;20054;-77
2023/04/29 18:08:29;;;;;;;20.65;13.07;;;;;;;;;;6241585;28;20061;-77
2023/04/29 18:11:31;;;;;;;16.77;12.65;;;;;;;;;;6239117;28;20042;-77
2023/04/29 18:14:50;;;;;;;17.55;13.43;;;;;;;;;;6239366;28;20049;-77
2023/04/29 18:17:53;;;;;;;14.95;12.90;;;;;;;;;;6241213;28;20058;-77
2023/04/29 18:20:55;;;;;;;17.70;13.27;;;;;;;;;;6241087;28;20600;-77
2023/04/29 18:23:57;;;;;;;17.27;12.55;;;;;;;;;;6237399;28;20092;-77
2023/04/29 18:26:59;;;;;;;18.02;12.93;;;;;;;;;;6238829;28;20057;-77
2023/04/29 18:30:02;;;;;;;20.42;14.70;;;;;;;;;;6242993;28;20140;-77
2023/04/29 18:33:04;;;;;;;17.27;13.82;;;;;;;;;;6239213;28;20113;-77
2023/04/29 18:36:06;;;;;;;19.33;14.80;;;;;;;;;;6239143;28;20045;-77
2023/04/29 18:39:08;;;;;;;20.23;15.23;;;;;;;;;;6239946;28;20333;-77
2023/04/29 18:42:10;;;;;;;20.55;14.80;;;;;;;;;;6225943;28;20046;-77
2023/04/29 18:45:16;;;;;;;20.88;15.57;;;;;;;;;;6225496;28;20064;-77
2023/04/29 18:48:18;;;;;;;19.90;15.52;;;;;;;;;;6223944;28;20053;-77
2023/04/29 18:51:21;;;;;;;19.67;15.80;;;;;;;;;;6226906;28;20058;-79
2023/04/29 18:54:27;;;;;;;23.42;17.50;;;;;;;;;;6212876;28;20242;-77
2023/04/29 18:57:29;;;;;;;19.55;16.73;;;;;;;;;;6224939;28;20125;-77
2023/04/29 19:00:32;;;;;;;20.70;16.55;;;;;;;;;;6224935;28;20137;-77